sensor_id;sensor_type;location;lat;lon;timestamp;pressure;altitude;pressure_sealevel;temperature;humidity
64602;BME280;51013;42.630;23.192;2022-11-18T00:01:18;91325.75;;;10.66;96.90
64602;BME280;51013;42.630;23.192;2022-11-18T00:03:47;91304.63;;;10.52;97.00
64602;BME280;51013;42.630;23.192;2022-11-18T00:06:18;91364.19;;;10.81;97.35
64602;BME280;51013;42.630;23.192;2022-11-18T00:08:45;91355.94;;;10.79;97.87
64602;BME280;51013;42.630;23.192;2022-11-18T00:11:14;91361.88;;;10.76;97.75
64602;BME280;51013;42.630;23.192;2022-11-18T00:14:02;91361.56;;;10.81;98.31
64602;BME280;51013;42.630;23.192;2022-11-18T00:16:49;91357.41;;;10.77;98.29
64602;BME280;51013;42.630;23.192;2022-11-18T00:19:17;91353.19;;;10.69;99.06
64602;BME280;51013;42.630;23.192;2022-11-18T00:21:46;91242.81;;;9.87;99.07
64602;BME280;51013;42.630;23.192;2022-11-18T00:24:13;91242.84;;;9.90;98.50
64602;BME280;51013;42.630;23.192;2022-11-18T00:26:40;91352.03;;;10.62;98.71
64602;BME280;51013;42.630;23.192;2022-11-18T00:29:08;91351.63;;;10.60;98.50
64602;BME280;51013;42.630;23.192;2022-11-18T00:31:36;91234.09;;;9.79;98.27
64602;BME280;51013;42.630;23.192;2022-11-18T00:34:03;91264.69;;;9.98;98.38
64602;BME280;51013;42.630;23.192;2022-11-18T00:36:31;91307.38;;;10.29;98.58
64602;BME280;51013;42.630;23.192;2022-11-18T00:39:00;91352.31;;;10.57;98.04
64602;BME280;51013;42.630;23.192;2022-11-18T00:41:28;91289.59;;;10.15;98.19
64602;BME280;51013;42.630;23.192;2022-11-18T00:44:15;91254.00;;;9.80;98.05
64602;BME280;51013;42.630;23.192;2022-11-18T00:46:41;91355.28;;;10.52;97.75
64602;BME280;51013;42.630;23.192;2022-11-18T00:49:08;91333.63;;;10.29;98.90
64602;BME280;51013;42.630;23.192;2022-11-18T00:51:35;91345.81;;;10.44;100.00
64602;BME280;51013;42.630;23.192;2022-11-18T00:54:04;91257.28;;;9.73;100.00
64602;BME280;51013;42.630;23.192;2022-11-18T00:56:31;91347.28;;;10.41;100.00
64602;BME280;51013;42.630;23.192;2022-11-18T00:58:59;91351.88;;;10.52;100.00
64602;BME280;51013;42.630;23.192;2022-11-18T01:01:26;91348.16;;;10.53;100.00
64602;BME280;51013;42.630;23.192;2022-11-18T01:03:53;91251.00;;;9.81;100.00
64602;BME280;51013;42.630;23.192;2022-11-18T01:06:20;91352.28;;;10.54;100.00
64602;BME280;51013;42.630;23.192;2022-11-18T01:08:47;91348.63;;;10.62;100.00
64602;BME280;51013;42.630;23.192;2022-11-18T01:11:16;91209.34;;;9.76;100.00
64602;BME280;51013;42.630;23.192;2022-11-18T01:14:00;91342.56;;;10.58;100.00
64602;BME280;51013;42.630;23.192;2022-11-18T01:16:27;91152.63;;;9.27;100.00
64602;BME280;51013;42.630;23.192;2022-11-18T01:18:56;91279.06;;;10.11;100.00
64602;BME280;51013;42.630;23.192;2022-11-18T01:21:23;91226.16;;;9.72;99.96
64602;BME280;51013;42.630;23.192;2022-11-18T01:23:50;91249.53;;;9.84;99.90
64602;BME280;51013;42.630;23.192;2022-11-18T01:26:19;91284.09;;;10.27;99.56
64602;BME280;51013;42.630;23.192;2022-11-18T01:28:45;91353.59;;;10.71;99.11
64602;BME280;51013;42.630;23.192;2022-11-18T01:31:14;91348.94;;;10.57;99.76
64602;BME280;51013;42.630;23.192;2022-11-18T01:33:42;91067.69;;;8.68;99.40
64602;BME280;51013;42.630;23.192;2022-11-18T01:36:16;91341.91;;;10.65;99.05
64602;BME280;51013;42.630;23.192;2022-11-18T01:38:44;91342.31;;;10.67;99.05
64602;BME280;51013;42.630;23.192;2022-11-18T01:41:11;91309.13;;;10.51;98.33
64602;BME280;51013;42.630;23.192;2022-11-18T01:43:52;91238.84;;;10.00;97.96
64602;BME280;51013;42.630;23.192;2022-11-18T01:46:21;91336.66;;;10.68;98.23
64602;BME280;51013;42.630;23.192;2022-11-18T01:48:51;91338.91;;;10.66;97.66
64602;BME280;51013;42.630;23.192;2022-11-18T01:51:23;91236.47;;;9.91;97.73
64602;BME280;51013;42.630;23.192;2022-11-18T01:53:54;91349.41;;;10.62;97.83
64602;BME280;51013;42.630;23.192;2022-11-18T01:56:28;91337.66;;;10.53;98.84
64602;BME280;51013;42.630;23.192;2022-11-18T01:59:02;91131.00;;;9.03;98.73
64602;BME280;51013;42.630;23.192;2022-11-18T02:01:32;91264.69;;;9.98;99.40
64602;BME280;51013;42.630;23.192;2022-11-18T02:03:59;91338.63;;;10.37;99.63
64602;BME280;51013;42.630;23.192;2022-11-18T02:06:27;91221.66;;;9.72;99.01
64602;BME280;51013;42.630;23.192;2022-11-18T02:08:55;91211.06;;;9.61;98.49
64602;BME280;51013;42.630;23.192;2022-11-18T02:11:22;91319.19;;;10.12;99.38
64602;BME280;51013;42.630;23.192;2022-11-18T02:14:08;91343.31;;;10.25;100.00
64602;BME280;51013;42.630;23.192;2022-11-18T02:16:54;91189.09;;;9.09;100.00
64602;BME280;51013;42.630;23.192;2022-11-18T02:22:45;91363.81;;;10.15;100.00
64602;BME280;51013;42.630;23.192;2022-11-18T02:25:19;91233.00;;;9.19;100.00
64602;BME280;51013;42.630;23.192;2022-11-18T02:28:04;91342.81;;;10.12;100.00
64602;BME280;51013;42.630;23.192;2022-11-18T02:30:43;91295.31;;;9.60;100.00
64602;BME280;51013;42.630;23.192;2022-11-18T02:33:15;91341.13;;;9.96;100.00
64602;BME280;51013;42.630;23.192;2022-11-18T02:35:45;91339.69;;;10.02;100.00
64602;BME280;51013;42.630;23.192;2022-11-18T02:38:15;91261.00;;;9.42;100.00
64602;BME280;51013;42.630;23.192;2022-11-18T02:40:47;91349.22;;;9.84;100.00
64602;BME280;51013;42.630;23.192;2022-11-18T02:43:18;91343.63;;;9.86;100.00
64602;BME280;51013;42.630;23.192;2022-11-18T02:45:51;91198.56;;;8.91;100.00
64602;BME280;51013;42.630;23.192;2022-11-18T02:48:21;91191.78;;;8.86;100.00
64602;BME280;51013;42.630;23.192;2022-11-18T02:50:50;91341.22;;;9.73;100.00
64602;BME280;51013;42.630;23.192;2022-11-18T02:53:19;91344.13;;;9.68;100.00
64602;BME280;51013;42.630;23.192;2022-11-18T02:55:47;91298.72;;;9.34;100.00
64602;BME280;51013;42.630;23.192;2022-11-18T02:58:17;91308.84;;;9.35;100.00
64602;BME280;51013;42.630;23.192;2022-11-18T03:00:53;91350.53;;;9.71;100.00
64602;BME280;51013;42.630;23.192;2022-11-18T03:03:24;91291.56;;;9.31;100.00
64602;BME280;51013;42.630;23.192;2022-11-18T03:06:07;91350.53;;;9.71;100.00
64602;BME280;51013;42.630;23.192;2022-11-18T03:08:38;91350.69;;;9.81;100.00
64602;BME280;51013;42.630;23.192;2022-11-18T03:11:13;91166.78;;;8.66;100.00
64602;BME280;51013;42.630;23.192;2022-11-18T03:13:51;91325.78;;;9.68;100.00
64602;BME280;51013;42.630;23.192;2022-11-18T03:16:26;91339.56;;;9.92;100.00
64602;BME280;51013;42.630;23.192;2022-11-18T03:19:00;91245.75;;;9.21;100.00
64602;BME280;51013;42.630;23.192;2022-11-18T03:21:36;91327.31;;;9.73;100.00
64602;BME280;51013;42.630;23.192;2022-11-18T03:24:10;91332.41;;;9.89;100.00
64602;BME280;51013;42.630;23.192;2022-11-18T03:26:43;91230.69;;;9.14;100.00
64602;BME280;51013;42.630;23.192;2022-11-18T03:29:16;91324.75;;;9.76;100.00
64602;BME280;51013;42.630;23.192;2022-11-18T03:31:49;91194.00;;;8.84;100.00
64602;BME280;51013;42.630;23.192;2022-11-18T03:34:21;91336.44;;;9.82;100.00
64602;BME280;51013;42.630;23.192;2022-11-18T03:36:54;91175.16;;;8.75;99.81
64602;BME280;51013;42.630;23.192;2022-11-18T03:39:24;91293.56;;;9.68;98.75
64602;BME280;51013;42.630;23.192;2022-11-18T03:41:54;91286.59;;;9.52;98.47
64602;BME280;51013;42.630;23.192;2022-11-18T03:44:28;91274.47;;;9.40;98.63
64602;BME280;51013;42.630;23.192;2022-11-18T03:47:00;91209.09;;;8.94;99.50
64602;BME280;51013;42.630;23.192;2022-11-18T03:49:33;91254.44;;;9.25;98.55
64602;BME280;51013;42.630;23.192;2022-11-18T03:52:08;91323.81;;;9.61;98.65
64602;BME280;51013;42.630;23.192;2022-11-18T03:54:38;91260.75;;;9.24;98.21
64602;BME280;51013;42.630;23.192;2022-11-18T03:57:11;91319.53;;;9.50;99.06
64602;BME280;51013;42.630;23.192;2022-11-18T03:59:42;91211.81;;;8.75;98.50
64602;BME280;51013;42.630;23.192;2022-11-18T04:02:12;91316.47;;;9.44;98.77
64602;BME280;51013;42.630;23.192;2022-11-18T04:04:40;91201.63;;;8.70;98.06
64602;BME280;51013;42.630;23.192;2022-11-18T04:07:11;91315.03;;;9.50;98.14
64602;BME280;51013;42.630;23.192;2022-11-18T04:09:46;91322.03;;;9.42;98.56
64602;BME280;51013;42.630;23.192;2022-11-18T04:12:17;91260.63;;;8.87;100.00
64602;BME280;51013;42.630;23.192;2022-11-18T04:14:47;91193.97;;;8.34;100.00
64602;BME280;51013;42.630;23.192;2022-11-18T04:17:22;91158.16;;;8.15;100.00
64602;BME280;51013;42.630;23.192;2022-11-18T04:19:49;91323.72;;;9.28;100.00
64602;BME280;51013;42.630;23.192;2022-11-18T04:22:16;91311.63;;;9.19;100.00
64602;BME280;51013;42.630;23.192;2022-11-18T04:24:44;91237.06;;;8.63;100.00
64602;BME280;51013;42.630;23.192;2022-11-18T04:27:12;91282.59;;;9.05;100.00
64602;BME280;51013;42.630;23.192;2022-11-18T04:29:39;91294.56;;;9.06;100.00
64602;BME280;51013;42.630;23.192;2022-11-18T04:32:05;91323.38;;;9.29;100.00
64602;BME280;51013;42.630;23.192;2022-11-18T04:34:35;91321.16;;;9.31;100.00
64602;BME280;51013;42.630;23.192;2022-11-18T04:37:03;91339.09;;;9.29;99.74
64602;BME280;51013;42.630;23.192;2022-11-18T04:39:30;91335.34;;;9.30;100.00
64602;BME280;51013;42.630;23.192;2022-11-18T04:41:57;91132.16;;;7.80;100.00
64602;BME280;51013;42.630;23.192;2022-11-18T04:44:25;91208.50;;;8.32;100.00
64602;BME280;51013;42.630;23.192;2022-11-18T04:46:53;91284.16;;;8.60;100.00
64602;BME280;51013;42.630;23.192;2022-11-18T04:49:22;91293.72;;;8.75;99.75
64602;BME280;51013;42.630;23.192;2022-11-18T04:51:51;91156.66;;;7.72;99.58
64602;BME280;51013;42.630;23.192;2022-11-18T04:54:20;91344.59;;;8.97;98.95
64602;BME280;51013;42.630;23.192;2022-11-18T04:56:47;91205.00;;;8.01;98.84
64602;BME280;51013;42.630;23.192;2022-11-18T04:59:16;91182.66;;;7.84;98.86
64602;BME280;51013;42.630;23.192;2022-11-18T05:01:43;91358.41;;;8.94;98.94
64602;BME280;51013;42.630;23.192;2022-11-18T05:04:12;91239.25;;;8.15;98.51
64602;BME280;51013;42.630;23.192;2022-11-18T05:06:39;91208.13;;;7.68;99.33
64602;BME280;51013;42.630;23.192;2022-11-18T05:09:09;91297.81;;;8.30;99.32
64602;BME280;51013;42.630;23.192;2022-11-18T05:11:37;91333.75;;;8.53;99.33
64602;BME280;51013;42.630;23.192;2022-11-18T05:14:24;91285.53;;;8.11;100.00
64602;BME280;51013;42.630;23.192;2022-11-18T05:16:51;91342.44;;;8.37;100.00
64602;BME280;51013;42.630;23.192;2022-11-18T05:19:18;91277.06;;;7.98;100.00
64602;BME280;51013;42.630;23.192;2022-11-18T05:21:45;91278.66;;;7.83;100.00
64602;BME280;51013;42.630;23.192;2022-11-18T05:24:14;91340.09;;;8.32;100.00
64602;BME280;51013;42.630;23.192;2022-11-18T05:26:41;91349.31;;;8.26;100.00
64602;BME280;51013;42.630;23.192;2022-11-18T05:29:08;91339.94;;;8.25;100.00
64602;BME280;51013;42.630;23.192;2022-11-18T05:31:38;91343.59;;;8.40;100.00
64602;BME280;51013;42.630;23.192;2022-11-18T05:34:08;91289.78;;;8.00;100.00
64602;BME280;51013;42.630;23.192;2022-11-18T05:36:36;91137.66;;;6.93;100.00
64602;BME280;51013;42.630;23.192;2022-11-18T05:39:03;91330.44;;;8.17;100.00
64602;BME280;51013;42.630;23.192;2022-11-18T05:41:31;91346.28;;;8.24;100.00
64602;BME280;51013;42.630;23.192;2022-11-18T05:44:16;91344.66;;;8.16;100.00
64602;BME280;51013;42.630;23.192;2022-11-18T05:46:43;91247.16;;;7.57;100.00
64602;BME280;51013;42.630;23.192;2022-11-18T05:49:11;91345.47;;;8.20;100.00
64602;BME280;51013;42.630;23.192;2022-11-18T05:51:38;91116.84;;;6.77;100.00
64602;BME280;51013;42.630;23.192;2022-11-18T05:54:08;91340.50;;;8.34;100.00
64602;BME280;51013;42.630;23.192;2022-11-18T05:56:39;91340.09;;;8.32;100.00
64602;BME280;51013;42.630;23.192;2022-11-18T05:59:09;91202.22;;;7.32;100.00
64602;BME280;51013;42.630;23.192;2022-11-18T06:01:42;91161.94;;;7.13;100.00
64602;BME280;51013;42.630;23.192;2022-11-18T06:04:14;91175.47;;;7.19;100.00
64602;BME280;51013;42.630;23.192;2022-11-18T06:06:43;91338.16;;;8.29;100.00
64602;BME280;51013;42.630;23.192;2022-11-18T06:09:12;91355.22;;;8.23;100.00
64602;BME280;51013;42.630;23.192;2022-11-18T06:11:46;91335.97;;;8.12;100.00
64602;BME280;51013;42.630;23.192;2022-11-18T06:14:17;91164.25;;;6.99;100.00
64602;BME280;51013;42.630;23.192;2022-11-18T06:16:48;91301.47;;;8.06;100.00
64602;BME280;51013;42.630;23.192;2022-11-18T06:19:16;91338.28;;;8.17;100.00
64602;BME280;51013;42.630;23.192;2022-11-18T06:21:44;91110.81;;;6.73;100.00
64602;BME280;51013;42.630;23.192;2022-11-18T06:24:13;91272.84;;;7.94;100.00
64602;BME280;51013;42.630;23.192;2022-11-18T06:26:40;91276.03;;;8.03;100.00
64602;BME280;51013;42.630;23.192;2022-11-18T06:29:12;91122.53;;;6.83;100.00
64602;BME280;51013;42.630;23.192;2022-11-18T06:31:42;91267.41;;;8.02;100.00
64602;BME280;51013;42.630;23.192;2022-11-18T06:34:09;91120.16;;;6.94;100.00
64602;BME280;51013;42.630;23.192;2022-11-18T06:36:40;91330.09;;;8.38;100.00
64602;BME280;51013;42.630;23.192;2022-11-18T06:39:09;91336.25;;;8.46;100.00
64602;BME280;51013;42.630;23.192;2022-11-18T06:41:36;91265.75;;;8.14;100.00
64602;BME280;51013;42.630;23.192;2022-11-18T06:44:03;91322.59;;;8.56;100.00
64602;BME280;51013;42.630;23.192;2022-11-18T06:46:31;91312.28;;;8.67;100.00
64602;BME280;51013;42.630;23.192;2022-11-18T06:49:15;91201.28;;;8.02;100.00
64602;BME280;51013;42.630;23.192;2022-11-18T06:51:43;91204.88;;;8.17;100.00
64602;BME280;51013;42.630;23.192;2022-11-18T06:54:10;91192.75;;;8.05;100.00
64602;BME280;51013;42.630;23.192;2022-11-18T06:56:39;91324.59;;;9.12;100.00
64602;BME280;51013;42.630;23.192;2022-11-18T06:59:06;91330.78;;;9.23;100.00
64602;BME280;51013;42.630;23.192;2022-11-18T07:01:36;91220.50;;;8.56;100.00
64602;BME280;51013;42.630;23.192;2022-11-18T07:04:04;91226.56;;;8.60;100.00
64602;BME280;51013;42.630;23.192;2022-11-18T07:06:32;91184.50;;;8.49;100.00
64602;BME280;51013;42.630;23.192;2022-11-18T07:09:00;91120.72;;;8.11;100.00
64602;BME280;51013;42.630;23.192;2022-11-18T07:11:29;91183.34;;;8.73;100.00
64602;BME280;51013;42.630;23.192;2022-11-18T07:13:55;91328.91;;;9.77;100.00
64602;BME280;51013;42.630;23.192;2022-11-18T07:16:24;91318.59;;;9.95;100.00
64602;BME280;51013;42.630;23.192;2022-11-18T07:18:53;91061.19;;;8.31;99.99
64602;BME280;51013;42.630;23.192;2022-11-18T07:21:23;91134.38;;;9.04;99.91
64602;BME280;51013;42.630;23.192;2022-11-18T07:23:50;91305.44;;;10.22;99.49
64602;BME280;51013;42.630;23.192;2022-11-18T07:26:18;91238.44;;;9.98;98.18
64602;BME280;51013;42.630;23.192;2022-11-18T07:28:45;91293.28;;;10.44;98.21
64602;BME280;51013;42.630;23.192;2022-11-18T07:31:16;91292.69;;;10.58;98.37
64602;BME280;51013;42.630;23.192;2022-11-18T07:33:46;91287.22;;;10.77;96.86
64602;BME280;51013;42.630;23.192;2022-11-18T07:36:16;91084.31;;;9.47;97.65
64602;BME280;51013;42.630;23.192;2022-11-18T07:38:45;91122.06;;;9.76;96.20
64602;BME280;51013;42.630;23.192;2022-11-18T07:41:13;91268.72;;;11.11;95.17
64602;BME280;51013;42.630;23.192;2022-11-18T07:43:42;91277.88;;;11.32;93.98
64602;BME280;51013;42.630;23.192;2022-11-18T07:46:12;91287.75;;;11.53;93.92
64602;BME280;51013;42.630;23.192;2022-11-18T07:48:42;91216.94;;;11.19;86.86
64602;BME280;51013;42.630;23.192;2022-11-18T07:51:11;91283.78;;;11.80;88.86
64602;BME280;51013;42.630;23.192;2022-11-18T07:53:40;91287.66;;;12.08;85.07
64602;BME280;51013;42.630;23.192;2022-11-18T07:56:08;91291.13;;;12.27;82.22
64602;BME280;51013;42.630;23.192;2022-11-18T07:58:35;91140.09;;;11.43;80.72
64602;BME280;51013;42.630;23.192;2022-11-18T08:01:07;91100.91;;;11.17;81.76
64602;BME280;51013;42.630;23.192;2022-11-18T08:03:34;91184.53;;;11.77;79.54
64602;BME280;51013;42.630;23.192;2022-11-18T08:06:03;91316.47;;;12.96;78.62
64602;BME280;51013;42.630;23.192;2022-11-18T08:08:30;91322.50;;;13.03;79.37
64602;BME280;51013;42.630;23.192;2022-11-18T08:11:00;91292.75;;;12.89;77.68
64602;BME280;51013;42.630;23.192;2022-11-18T08:13:28;91316.09;;;13.19;77.14
64602;BME280;51013;42.630;23.192;2022-11-18T08:15:56;91262.25;;;12.95;76.72
64602;BME280;51013;42.630;23.192;2022-11-18T08:18:23;91297.28;;;13.24;77.05
64602;BME280;51013;42.630;23.192;2022-11-18T08:20:50;91305.16;;;13.28;77.12
64602;BME280;51013;42.630;23.192;2022-11-18T08:23:17;91305.56;;;13.48;78.76
64602;BME280;51013;42.630;23.192;2022-11-18T08:25:44;91275.03;;;13.21;79.32
64602;BME280;51013;42.630;23.192;2022-11-18T08:28:14;91250.19;;;13.33;81.11
64602;BME280;51013;42.630;23.192;2022-11-18T08:30:42;91280.66;;;13.59;79.18
64602;BME280;51013;42.630;23.192;2022-11-18T08:33:09;91287.44;;;13.64;78.99
64602;BME280;51013;42.630;23.192;2022-11-18T08:35:36;91094.00;;;12.47;80.46
64602;BME280;51013;42.630;23.192;2022-11-18T08:38:03;91221.53;;;13.42;78.37
64602;BME280;51013;42.630;23.192;2022-11-18T08:40:30;91265.16;;;13.79;75.91
64602;BME280;51013;42.630;23.192;2022-11-18T08:42:59;91071.81;;;12.51;75.16
64602;BME280;51013;42.630;23.192;2022-11-18T08:45:27;91253.03;;;13.93;72.76
64602;BME280;51013;42.630;23.192;2022-11-18T08:47:54;91260.19;;;14.03;70.78
64602;BME280;51013;42.630;23.192;2022-11-18T08:50:21;91136.03;;;13.36;69.50
64602;BME280;51013;42.630;23.192;2022-11-18T08:52:48;91240.56;;;14.08;69.93
64602;BME280;51013;42.630;23.192;2022-11-18T08:55:15;91169.06;;;13.70;69.15
64602;BME280;51013;42.630;23.192;2022-11-18T08:57:43;91207.78;;;13.98;67.46
64602;BME280;51013;42.630;23.192;2022-11-18T09:00:12;91233.72;;;14.17;67.43
64602;BME280;51013;42.630;23.192;2022-11-18T09:02:40;91119.03;;;13.45;65.36
64602;BME280;51013;42.630;23.192;2022-11-18T09:05:07;91109.91;;;13.56;66.25
64602;BME280;51013;42.630;23.192;2022-11-18T09:07:34;91159.81;;;14.07;66.88
64602;BME280;51013;42.630;23.192;2022-11-18T09:10:02;91169.25;;;14.11;66.15
64602;BME280;51013;42.630;23.192;2022-11-18T09:12:29;91182.72;;;14.28;67.11
64602;BME280;51013;42.630;23.192;2022-11-18T09:14:56;91180.81;;;14.32;65.19
64602;BME280;51013;42.630;23.192;2022-11-18T09:17:23;91205.13;;;14.68;67.18
64602;BME280;51013;42.630;23.192;2022-11-18T09:19:52;91035.00;;;13.43;65.26
64602;BME280;51013;42.630;23.192;2022-11-18T09:22:19;91093.91;;;13.89;65.54
64602;BME280;51013;42.630;23.192;2022-11-18T09:24:46;91064.22;;;13.74;66.27
64602;BME280;51013;42.630;23.192;2022-11-18T09:27:14;91182.09;;;14.69;65.11
64602;BME280;51013;42.630;23.192;2022-11-18T09:29:40;91209.03;;;14.98;64.25
64602;BME280;51013;42.630;23.192;2022-11-18T09:32:07;91157.94;;;14.67;64.26
64602;BME280;51013;42.630;23.192;2022-11-18T09:34:34;91006.84;;;13.85;65.29
64602;BME280;51013;42.630;23.192;2022-11-18T09:37:04;91066.16;;;14.22;63.09
64602;BME280;51013;42.630;23.192;2022-11-18T09:39:33;91140.72;;;14.93;63.67
64602;BME280;51013;42.630;23.192;2022-11-18T09:42:22;91180.88;;;15.18;63.21
64602;BME280;51013;42.630;23.192;2022-11-18T09:45:04;91106.19;;;14.66;63.91
64602;BME280;51013;42.630;23.192;2022-11-18T09:47:36;91160.94;;;15.10;64.74
64602;BME280;51013;42.630;23.192;2022-11-18T09:50:05;90967.22;;;13.89;63.68
64602;BME280;51013;42.630;23.192;2022-11-18T09:52:38;90988.25;;;14.03;63.02
64602;BME280;51013;42.630;23.192;2022-11-18T09:55:11;91153.91;;;15.34;63.66
64602;BME280;51013;42.630;23.192;2022-11-18T09:57:40;91151.69;;;15.33;62.86
64602;BME280;51013;42.630;23.192;2022-11-18T10:00:15;91156.22;;;15.29;61.65
64602;BME280;51013;42.630;23.192;2022-11-18T10:02:56;91159.22;;;15.31;60.84
64602;BME280;51013;42.630;23.192;2022-11-18T10:05:26;91121.00;;;15.01;60.82
64602;BME280;51013;42.630;23.192;2022-11-18T10:08:02;91089.13;;;14.74;62.21
64602;BME280;51013;42.630;23.192;2022-11-18T10:10:37;91050.44;;;14.49;60.07
64602;BME280;51013;42.630;23.192;2022-11-18T10:13:15;91162.56;;;15.38;61.29
64602;BME280;51013;42.630;23.192;2022-11-18T10:15:53;90982.69;;;14.32;62.12
64602;BME280;51013;42.630;23.192;2022-11-18T10:18:29;91156.94;;;15.67;62.31
64602;BME280;51013;42.630;23.192;2022-11-18T10:21:03;90986.97;;;14.60;61.77
64602;BME280;51013;42.630;23.192;2022-11-18T10:23:44;90931.44;;;14.26;59.41
64602;BME280;51013;42.630;23.192;2022-11-18T10:26:11;91100.59;;;15.36;60.70
64602;BME280;51013;42.630;23.192;2022-11-18T10:28:38;91142.53;;;15.72;60.53
64602;BME280;51013;42.630;23.192;2022-11-18T10:31:06;91111.81;;;15.47;60.08
64602;BME280;51013;42.630;23.192;2022-11-18T10:33:34;91089.47;;;15.17;60.54
64602;BME280;51013;42.630;23.192;2022-11-18T10:36:24;91050.19;;;14.81;62.05
64602;BME280;51013;42.630;23.192;2022-11-18T10:39:09;91025.88;;;14.94;61.54
64602;BME280;51013;42.630;23.192;2022-11-18T10:41:48;90993.81;;;14.54;60.84
64602;BME280;51013;42.630;23.192;2022-11-18T10:44:33;91079.22;;;15.23;61.15
64602;BME280;51013;42.630;23.192;2022-11-18T10:47:24;91124.28;;;15.47;61.65
64602;BME280;51013;42.630;23.192;2022-11-18T10:49:53;91084.72;;;15.01;61.68
64602;BME280;51013;42.630;23.192;2022-11-18T10:52:21;91121.03;;;15.35;61.71
64602;BME280;51013;42.630;23.192;2022-11-18T10:55:18;91110.69;;;15.45;62.80
64602;BME280;51013;42.630;23.192;2022-11-18T10:57:47;91118.22;;;15.50;62.59
64602;BME280;51013;42.630;23.192;2022-11-18T11:00:33;90979.06;;;14.60;62.33
64602;BME280;51013;42.630;23.192;2022-11-18T11:03:24;91098.00;;;15.63;62.25
64602;BME280;51013;42.630;23.192;2022-11-18T11:08:57;90933.97;;;14.36;61.45
64602;BME280;51013;42.630;23.192;2022-11-18T11:11:28;90987.22;;;14.73;61.84
64602;BME280;51013;42.630;23.192;2022-11-18T11:14:03;91120.75;;;15.57;62.11
64602;BME280;51013;42.630;23.192;2022-11-18T11:16:36;91062.22;;;15.20;62.78
64602;BME280;51013;42.630;23.192;2022-11-18T11:19:09;91006.25;;;14.91;62.54
64602;BME280;51013;42.630;23.192;2022-11-18T11:21:37;91053.84;;;15.26;63.37
64602;BME280;51013;42.630;23.192;2022-11-18T11:24:09;91054.56;;;15.30;62.97
64602;BME280;51013;42.630;23.192;2022-11-18T11:26:45;90966.06;;;14.73;63.11
64602;BME280;51013;42.630;23.192;2022-11-18T11:29:28;91065.53;;;15.28;63.31
64602;BME280;51013;42.630;23.192;2022-11-18T11:32:06;91031.84;;;15.01;64.38
64602;BME280;51013;42.630;23.192;2022-11-18T11:34:42;91092.94;;;15.45;64.83
64602;BME280;51013;42.630;23.192;2022-11-18T11:37:20;91100.56;;;15.39;65.03
64602;BME280;51013;42.630;23.192;2022-11-18T11:39:59;90999.84;;;14.54;64.44
64602;BME280;51013;42.630;23.192;2022-11-18T11:42:39;91044.91;;;14.78;65.45
64602;BME280;51013;42.630;23.192;2022-11-18T11:45:18;90854.13;;;13.42;66.97
64602;BME280;51013;42.630;23.192;2022-11-18T11:48:10;90974.34;;;14.37;66.46
64602;BME280;51013;42.630;23.192;2022-11-18T11:50:45;91056.91;;;14.86;66.55
64602;BME280;51013;42.630;23.192;2022-11-18T11:56:17;91085.59;;;14.91;66.97
64602;BME280;51013;42.630;23.192;2022-11-18T11:59:06;91087.56;;;14.80;67.40
64602;BME280;51013;42.630;23.192;2022-11-18T12:01:42;90930.44;;;13.67;67.31
64602;BME280;51013;42.630;23.192;2022-11-18T12:04:25;91096.31;;;14.73;67.81
64602;BME280;51013;42.630;23.192;2022-11-18T12:06:55;91034.75;;;14.31;68.23
64602;BME280;51013;42.630;23.192;2022-11-18T12:09:31;91090.72;;;14.68;68.15
64602;BME280;51013;42.630;23.192;2022-11-18T12:12:07;90997.66;;;14.00;69.04
64602;BME280;51013;42.630;23.192;2022-11-18T12:15:04;91098.69;;;14.64;69.19
64602;BME280;51013;42.630;23.192;2022-11-18T12:17:43;90898.19;;;13.45;68.65
64602;BME280;51013;42.630;23.192;2022-11-18T12:20:35;91074.91;;;14.64;69.31
64602;BME280;51013;42.630;23.192;2022-11-18T12:23:17;90937.56;;;13.74;69.58
64602;BME280;51013;42.630;23.192;2022-11-18T12:25:54;90806.28;;;12.91;69.62
64602;BME280;51013;42.630;23.192;2022-11-18T12:28:24;90905.13;;;13.73;68.83
64602;BME280;51013;42.630;23.192;2022-11-18T12:33:55;91046.59;;;14.61;69.50
64602;BME280;51013;42.630;23.192;2022-11-18T12:36:27;90822.41;;;13.00;67.81
64602;BME280;51013;42.630;23.192;2022-11-18T12:38:55;90929.59;;;13.77;68.32
64602;BME280;51013;42.630;23.192;2022-11-18T12:41:53;91033.72;;;14.67;67.69
64602;BME280;51013;42.630;23.192;2022-11-18T12:44:38;91050.03;;;14.58;67.85
64602;BME280;51013;42.630;23.192;2022-11-18T12:47:06;90913.50;;;13.65;66.80
64602;BME280;51013;42.630;23.192;2022-11-18T12:52:53;91031.94;;;14.56;67.51
64602;BME280;51013;42.630;23.192;2022-11-18T12:55:30;91031.94;;;14.56;66.56
64602;BME280;51013;42.630;23.192;2022-11-18T12:57:58;90903.19;;;13.81;66.60
64602;BME280;51013;42.630;23.192;2022-11-18T13:00:33;90959.41;;;14.19;66.24
64602;BME280;51013;42.630;23.192;2022-11-18T13:03:26;90915.84;;;13.97;66.25
64602;BME280;51013;42.630;23.192;2022-11-18T13:06:01;90903.13;;;13.85;67.25
64602;BME280;51013;42.630;23.192;2022-11-18T13:08:32;90989.19;;;14.61;66.62
64602;BME280;51013;42.630;23.192;2022-11-18T13:11:06;90951.66;;;14.39;66.44
64602;BME280;51013;42.630;23.192;2022-11-18T13:13:52;90955.63;;;14.20;67.37
64602;BME280;51013;42.630;23.192;2022-11-18T13:16:42;90812.94;;;13.07;66.16
64602;BME280;51013;42.630;23.192;2022-11-18T13:19:27;91004.34;;;14.57;66.73
64602;BME280;51013;42.630;23.192;2022-11-18T13:21:55;90772.72;;;12.95;66.39
64602;BME280;51013;42.630;23.192;2022-11-18T13:24:46;90888.59;;;13.69;66.40
64602;BME280;51013;42.630;23.192;2022-11-18T13:27:22;90997.19;;;14.58;66.75
64602;BME280;51013;42.630;23.192;2022-11-18T13:29:59;90990.00;;;14.58;66.35